createdAt,value
2023-07-31T00:02:21.034Z,19.68
2023-07-31T00:04:47.953Z,19.75
2023-07-31T00:07:15.088Z,19.84
2023-07-31T00:09:41.938Z,19.82
2023-07-31T00:12:09.306Z,19.91
2023-07-31T00:14:36.187Z,19.61
2023-07-31T00:17:03.073Z,19.82
2023-07-31T00:19:30.148Z,19.91
2023-07-31T00:21:57.036Z,19.77
2023-07-31T00:24:23.958Z,19.82
2023-07-31T00:26:50.826Z,19.58
2023-07-31T00:29:17.720Z,19.49
2023-07-31T00:31:44.692Z,19.76
2023-07-31T00:34:11.654Z,19.76
2023-07-31T00:36:38.779Z,19.82
2023-07-31T00:39:05.861Z,19.49
2023-07-31T00:41:32.755Z,19.75
2023-07-31T00:43:59.639Z,19.26
2023-07-31T00:46:26.557Z,19.44
2023-07-31T00:48:53.444Z,19.55
2023-07-31T00:51:20.383Z,19.31
2023-07-31T00:53:48.447Z,19.52
2023-07-31T00:56:15.453Z,19.70
2023-07-31T00:58:42.365Z,19.83
2023-07-31T01:01:09.320Z,19.62
2023-07-31T01:03:36.262Z,19.30
2023-07-31T01:06:21.056Z,19.36
2023-07-31T01:09:02.059Z,19.36
2023-07-31T01:11:30.603Z,19.00
2023-07-31T01:13:58.325Z,19.29
2023-07-31T01:16:29.323Z,19.54
2023-07-31T01:18:56.252Z,19.32
2023-07-31T01:21:37.078Z,19.24
2023-07-31T01:24:22.375Z,19.91
2023-07-31T01:26:57.934Z,20.40
2023-07-31T01:29:34.194Z,20.47
2023-07-31T01:32:03.859Z,20.03
2023-07-31T01:34:31.084Z,19.77
2023-07-31T01:37:01.141Z,20.13
2023-07-31T01:39:28.005Z,19.94
2023-07-31T01:41:55.002Z,20.35
2023-07-31T01:44:21.882Z,20.26
2023-07-31T01:46:48.865Z,19.88
2023-07-31T01:49:15.803Z,20.11
2023-07-31T01:51:42.715Z,19.72
2023-07-31T01:54:09.691Z,20.01
2023-07-31T01:56:36.643Z,19.60
2023-07-31T01:59:03.566Z,19.13
2023-07-31T02:01:30.487Z,19.29
2023-07-31T02:03:57.764Z,19.19
2023-07-31T02:06:24.677Z,19.13
2023-07-31T02:08:51.650Z,19.22
2023-07-31T02:11:19.167Z,19.23
2023-07-31T02:13:46.002Z,19.46
2023-07-31T02:16:12.949Z,19.84
2023-07-31T02:18:39.822Z,19.88
2023-07-31T02:21:06.757Z,19.13
2023-07-31T02:23:33.634Z,19.20
2023-07-31T02:26:00.500Z,19.43
2023-07-31T02:28:27.363Z,19.46
2023-07-31T02:30:54.230Z,19.50
2023-07-31T02:33:21.079Z,19.43
2023-07-31T02:35:48.087Z,19.12
2023-07-31T02:38:15.021Z,19.19
2023-07-31T02:40:44.897Z,19.07
2023-07-31T02:43:11.800Z,19.10
2023-07-31T02:45:38.772Z,18.85
2023-07-31T02:48:05.941Z,19.02
2023-07-31T02:50:33.420Z,18.93
2023-07-31T02:53:00.350Z,18.78
2023-07-31T02:55:27.238Z,18.94
2023-07-31T02:57:54.184Z,18.84
2023-07-31T03:00:21.118Z,19.01
2023-07-31T03:02:48.047Z,18.54
2023-07-31T03:05:15.081Z,18.49
2023-07-31T03:07:41.974Z,18.88
2023-07-31T03:10:09.429Z,19.27
2023-07-31T03:12:36.493Z,19.27
2023-07-31T03:15:03.420Z,19.14
2023-07-31T03:17:30.449Z,18.88
2023-07-31T03:19:57.323Z,18.93
2023-07-31T03:22:24.264Z,18.77
2023-07-31T03:24:51.111Z,18.45
2023-07-31T03:27:17.996Z,18.57
2023-07-31T03:29:44.877Z,18.53
2023-07-31T03:32:11.727Z,18.32
2023-07-31T03:34:38.959Z,18.52
2023-07-31T03:37:06.376Z,18.72
2023-07-31T03:39:33.228Z,18.33
2023-07-31T03:42:00.075Z,18.86
2023-07-31T03:44:26.935Z,18.58
2023-07-31T03:46:54.104Z,18.33
2023-07-31T03:49:21.043Z,18.52
2023-07-31T03:51:47.988Z,18.63
2023-07-31T03:54:15.235Z,18.38
2023-07-31T03:56:42.451Z,18.39
2023-07-31T03:59:09.589Z,18.65
2023-07-31T04:01:36.460Z,18.58
2023-07-31T04:04:03.422Z,18.38
2023-07-31T04:06:30.484Z,18.59
2023-07-31T04:08:57.473Z,18.64
2023-07-31T04:11:24.417Z,18.67
2023-07-31T04:13:51.248Z,19.01
2023-07-31T04:16:18.149Z,18.72
2023-07-31T04:18:45.051Z,18.65
2023-07-31T04:21:11.948Z,18.75
2023-07-31T04:23:39.230Z,19.18
2023-07-31T04:26:06.097Z,18.95
2023-07-31T04:28:33.167Z,19.13
2023-07-31T04:31:00.294Z,19.49
2023-07-31T04:33:27.218Z,20.02
2023-07-31T04:35:55.361Z,20.00
2023-07-31T04:38:23.061Z,20.22
2023-07-31T04:40:50.327Z,20.07
2023-07-31T04:43:17.288Z,19.98
2023-07-31T04:45:48.347Z,19.72
2023-07-31T04:48:15.868Z,19.97
2023-07-31T04:50:42.731Z,20.07
2023-07-31T04:53:09.644Z,20.33
2023-07-31T04:55:36.537Z,20.21
2023-07-31T04:58:03.457Z,20.50
2023-07-31T05:00:30.356Z,21.09
2023-07-31T05:02:57.363Z,20.55
2023-07-31T05:05:24.287Z,20.91
2023-07-31T05:07:51.179Z,20.97
2023-07-31T05:10:18.030Z,20.71
2023-07-31T05:12:44.907Z,20.76
2023-07-31T05:15:11.918Z,20.58
2023-07-31T05:17:38.847Z,20.53
2023-07-31T05:20:06.372Z,20.85
2023-07-31T05:22:33.273Z,20.78
2023-07-31T05:25:00.197Z,20.66
2023-07-31T05:27:27.097Z,21.07
2023-07-31T05:29:53.957Z,21.52
2023-07-31T05:32:20.909Z,22.01
2023-07-31T05:34:47.868Z,21.61
2023-07-31T05:37:15.457Z,21.98
2023-07-31T05:39:42.309Z,22.20
2023-07-31T05:42:09.250Z,21.75
2023-07-31T05:44:36.145Z,21.81
2023-07-31T05:47:03.132Z,21.92
2023-07-31T05:49:30.011Z,21.69
2023-07-31T05:51:56.905Z,20.95
2023-07-31T05:54:23.784Z,20.70
2023-07-31T05:56:50.659Z,20.62
2023-07-31T05:59:18.020Z,20.56
2023-07-31T06:01:45.188Z,20.12
2023-07-31T06:04:12.220Z,20.37
2023-07-31T06:06:39.470Z,20.09
2023-07-31T06:09:06.657Z,20.47
2023-07-31T06:11:33.738Z,20.56
2023-07-31T06:14:00.650Z,20.68
2023-07-31T06:16:28.573Z,20.69
2023-07-31T06:18:55.548Z,20.71
2023-07-31T06:21:22.457Z,20.66
2023-07-31T06:23:49.342Z,21.00
2023-07-31T06:26:16.265Z,21.25
2023-07-31T06:28:43.214Z,21.52
2023-07-31T06:31:10.332Z,21.39
2023-07-31T06:33:37.485Z,22.00
2023-07-31T06:36:04.431Z,22.03
2023-07-31T06:38:31.356Z,21.90
2023-07-31T06:40:58.347Z,22.38
2023-07-31T06:43:26.934Z,22.87
2023-07-31T06:45:56.027Z,23.46
2023-07-31T06:48:22.984Z,23.08
2023-07-31T06:50:49.846Z,22.95
2023-07-31T06:53:16.766Z,23.25
2023-07-31T06:55:43.702Z,23.44
2023-07-31T06:58:10.580Z,24.01
2023-07-31T07:00:37.555Z,24.12
2023-07-31T07:03:04.735Z,22.94
2023-07-31T07:05:31.802Z,22.46
2023-07-31T07:07:59.535Z,22.94
2023-07-31T07:10:26.480Z,23.23
2023-07-31T07:12:55.677Z,22.22
2023-07-31T07:15:22.703Z,23.00
2023-07-31T07:17:49.692Z,22.94
2023-07-31T07:20:16.650Z,23.19
2023-07-31T07:22:46.300Z,23.92
2023-07-31T07:25:13.196Z,23.49
2023-07-31T07:27:40.092Z,22.94
2023-07-31T07:30:07.564Z,23.72
2023-07-31T07:32:34.495Z,23.18
2023-07-31T07:35:01.574Z,23.80
2023-07-31T07:37:28.437Z,23.84
2023-07-31T07:39:55.379Z,24.15
2023-07-31T07:42:22.273Z,24.06
2023-07-31T07:44:49.223Z,24.02
2023-07-31T07:47:16.117Z,23.76
2023-07-31T07:49:44.660Z,24.22
2023-07-31T07:52:13.341Z,24.39
2023-07-31T07:54:40.252Z,25.07
2023-07-31T07:57:07.228Z,24.37
2023-07-31T07:59:34.090Z,24.22
2023-07-31T08:02:00.963Z,24.52
2023-07-31T08:04:27.965Z,24.71
2023-07-31T08:06:55.857Z,24.39
2023-07-31T08:09:22.745Z,24.32
2023-07-31T08:11:49.578Z,24.28
2023-07-31T08:14:16.444Z,23.57
2023-07-31T08:16:43.986Z,23.88
2023-07-31T08:19:11.173Z,24.42
2023-07-31T08:21:38.101Z,25.34
2023-07-31T08:24:05.082Z,24.93
2023-07-31T08:26:33.766Z,25.13
2023-07-31T08:29:00.710Z,25.28
2023-07-31T08:31:28.216Z,24.20
2023-07-31T08:33:55.048Z,24.75
2023-07-31T08:36:22.975Z,24.02
2023-07-31T08:38:51.131Z,24.27
2023-07-31T08:41:21.023Z,24.59
2023-07-31T08:43:49.584Z,24.52
2023-07-31T08:46:16.816Z,24.76
2023-07-31T08:48:45.233Z,24.64
2023-07-31T08:51:12.574Z,24.41
2023-07-31T08:53:39.527Z,24.58
2023-07-31T08:56:07.975Z,24.96
2023-07-31T08:58:36.049Z,24.40
2023-07-31T09:01:05.398Z,24.63
2023-07-31T09:03:35.383Z,24.41
2023-07-31T09:06:05.622Z,24.24
2023-07-31T09:08:35.862Z,23.87
2023-07-31T09:11:04.605Z,23.71
2023-07-31T09:13:32.544Z,23.72
2023-07-31T09:16:00.328Z,25.07
2023-07-31T09:18:27.313Z,24.61
2023-07-31T09:21:04.158Z,24.58
2023-07-31T09:23:44.045Z,25.65
2023-07-31T09:26:11.540Z,26.01
2023-07-31T09:28:38.595Z,25.91
2023-07-31T09:31:05.476Z,26.20
2023-07-31T09:33:32.519Z,26.59
2023-07-31T09:36:02.071Z,26.22
2023-07-31T09:38:28.959Z,27.02
2023-07-31T09:40:55.891Z,26.42
2023-07-31T09:43:23.964Z,26.89
2023-07-31T09:45:57.428Z,27.00
2023-07-31T09:48:26.980Z,27.67
2023-07-31T09:50:55.179Z,27.67
2023-07-31T09:53:29.789Z,27.23
2023-07-31T09:55:59.568Z,27.58
2023-07-31T09:58:30.145Z,27.08
2023-07-31T10:00:58.794Z,27.51
2023-07-31T10:03:26.391Z,27.46
2023-07-31T10:05:55.324Z,27.17
2023-07-31T10:08:25.385Z,26.67
2023-07-31T10:10:52.245Z,27.60
2023-07-31T10:13:19.839Z,26.79
2023-07-31T10:15:47.099Z,27.16
2023-07-31T10:18:14.268Z,26.43
2023-07-31T10:20:41.773Z,26.39
2023-07-31T10:23:08.978Z,26.52
2023-07-31T10:25:36.868Z,26.31
2023-07-31T10:28:03.901Z,27.39
2023-07-31T10:30:32.358Z,26.90
2023-07-31T10:32:59.674Z,26.74
2023-07-31T10:35:26.679Z,27.13
2023-07-31T10:37:54.049Z,27.12
2023-07-31T10:40:25.936Z,27.46
2023-07-31T10:42:59.166Z,27.14
2023-07-31T10:45:40.192Z,27.56
2023-07-31T10:50:40.011Z,27.71
2023-07-31T10:53:08.393Z,27.28
2023-07-31T10:55:40.458Z,27.10
2023-07-31T10:58:09.456Z,27.00
2023-07-31T11:00:39.396Z,26.99
2023-07-31T11:03:09.945Z,27.53
2023-07-31T11:05:52.348Z,27.90
2023-07-31T11:08:22.228Z,27.53
2023-07-31T11:11:06.078Z,27.83
2023-07-31T11:13:41.809Z,27.88
2023-07-31T11:16:09.233Z,27.36
2023-07-31T11:18:36.667Z,27.25
2023-07-31T11:21:03.606Z,27.01
2023-07-31T11:23:30.482Z,26.60
2023-07-31T11:26:01.278Z,26.69
2023-07-31T11:28:36.091Z,26.78
2023-07-31T11:31:04.023Z,26.66
2023-07-31T11:33:31.203Z,26.37
2023-07-31T11:36:00.134Z,26.88
2023-07-31T11:38:29.311Z,26.95
2023-07-31T11:40:58.345Z,27.41
2023-07-31T11:43:25.926Z,27.38
2023-07-31T11:45:54.166Z,27.69
2023-07-31T11:48:28.055Z,27.47
2023-07-31T11:51:05.898Z,27.33
2023-07-31T11:53:49.172Z,27.23
2023-07-31T11:56:18.873Z,27.43
2023-07-31T11:58:48.874Z,27.39
2023-07-31T12:01:18.387Z,27.70
2023-07-31T12:03:46.421Z,27.75
2023-07-31T12:06:13.309Z,27.83
2023-07-31T12:08:40.201Z,27.14
2023-07-31T12:11:10.962Z,27.65
2023-07-31T12:13:37.965Z,27.66
2023-07-31T12:16:05.597Z,27.62
2023-07-31T12:18:37.221Z,27.94
2023-07-31T12:21:06.890Z,28.23
2023-07-31T12:23:34.829Z,28.23
2023-07-31T12:26:08.952Z,27.95
2023-07-31T12:28:49.699Z,28.51
2023-07-31T12:31:19.079Z,28.59
2023-07-31T12:33:47.226Z,28.33
2023-07-31T12:36:16.285Z,27.96
2023-07-31T12:38:43.598Z,27.46
2023-07-31T12:41:10.982Z,27.68
2023-07-31T12:43:42.775Z,27.87
2023-07-31T12:46:10.336Z,28.04
2023-07-31T12:48:38.276Z,28.25
2023-07-31T12:51:05.756Z,28.37
2023-07-31T12:53:32.609Z,27.93
2023-07-31T12:55:59.669Z,27.81
2023-07-31T12:58:27.028Z,28.02
2023-07-31T13:00:53.977Z,28.17
2023-07-31T13:03:20.980Z,27.91
2023-07-31T13:05:47.973Z,28.11
2023-07-31T13:08:17.221Z,28.28
2023-07-31T13:10:44.151Z,28.14
2023-07-31T13:13:11.457Z,27.96
2023-07-31T13:15:38.494Z,27.89
2023-07-31T13:18:05.795Z,28.25
2023-07-31T13:20:32.815Z,28.19
2023-07-31T13:22:59.674Z,27.71
2023-07-31T13:25:26.600Z,27.51
2023-07-31T13:27:53.566Z,27.50
2023-07-31T13:30:20.491Z,27.19
2023-07-31T13:32:47.466Z,26.92
2023-07-31T13:35:14.528Z,27.91
2023-07-31T13:37:41.395Z,27.85
2023-07-31T13:40:08.793Z,27.94
2023-07-31T13:42:35.678Z,27.32
2023-07-31T13:45:05.513Z,27.14
2023-07-31T13:47:34.554Z,27.56
2023-07-31T13:50:01.519Z,27.54
2023-07-31T13:52:28.425Z,28.05
2023-07-31T13:54:55.345Z,27.92
2023-07-31T13:57:22.250Z,27.43
2023-07-31T13:59:49.137Z,27.41
2023-07-31T14:02:16.302Z,27.19
2023-07-31T14:04:43.198Z,27.33
2023-07-31T14:07:10.122Z,27.44
2023-07-31T14:09:36.988Z,27.82
2023-07-31T14:12:04.215Z,28.09
2023-07-31T14:14:31.188Z,28.34
2023-07-31T14:16:58.238Z,27.94
2023-07-31T14:19:26.448Z,28.17
2023-07-31T14:22:04.876Z,28.46
2023-07-31T14:24:36.665Z,28.37
2023-07-31T14:27:03.858Z,28.75
2023-07-31T14:29:31.468Z,28.54
2023-07-31T14:31:58.392Z,28.60
2023-07-31T14:34:25.437Z,28.96
2023-07-31T14:36:52.397Z,29.13
2023-07-31T14:39:19.349Z,28.92
2023-07-31T14:41:46.285Z,28.68
2023-07-31T14:44:15.428Z,28.45
2023-07-31T14:46:42.422Z,28.66
2023-07-31T14:49:09.577Z,28.80
2023-07-31T14:51:36.566Z,28.67
2023-07-31T14:54:03.465Z,28.59
2023-07-31T14:56:30.389Z,28.58
2023-07-31T14:58:57.255Z,28.10
2023-07-31T15:01:25.365Z,27.88
2023-07-31T15:03:52.280Z,27.62
2023-07-31T15:06:19.225Z,27.40
2023-07-31T15:08:46.073Z,27.77
2023-07-31T15:11:12.966Z,27.83
2023-07-31T15:13:39.859Z,28.72
2023-07-31T15:16:06.810Z,29.12
2023-07-31T15:18:33.757Z,29.29
2023-07-31T15:21:00.698Z,28.99
2023-07-31T15:23:27.741Z,29.45
2023-07-31T15:25:54.679Z,29.38
2023-07-31T15:28:21.730Z,29.52
2023-07-31T15:30:49.302Z,29.44
2023-07-31T15:33:17.195Z,29.64
2023-07-31T15:35:44.450Z,29.98
2023-07-31T15:38:11.532Z,30.15
2023-07-31T15:40:40.032Z,30.13
2023-07-31T15:43:06.959Z,30.03
2023-07-31T15:45:33.931Z,29.98
2023-07-31T15:48:00.826Z,30.04
2023-07-31T15:50:27.766Z,29.69
2023-07-31T15:52:54.654Z,29.89
2023-07-31T15:55:22.930Z,30.34
2023-07-31T15:57:49.920Z,30.50
2023-07-31T16:00:17.210Z,30.04
2023-07-31T16:02:44.442Z,30.69
2023-07-31T16:05:11.518Z,30.47
2023-07-31T16:07:38.565Z,30.39
2023-07-31T16:10:06.010Z,30.86
2023-07-31T16:12:33.893Z,29.82
2023-07-31T16:15:00.971Z,30.23
2023-07-31T16:17:27.918Z,31.35
2023-07-31T16:19:54.847Z,31.16
2023-07-31T16:22:22.002Z,31.33
2023-07-31T16:24:48.875Z,30.93
2023-07-31T16:27:15.734Z,31.65
2023-07-31T16:29:42.615Z,31.33
2023-07-31T16:32:12.281Z,31.01
2023-07-31T16:34:39.700Z,30.77
2023-07-31T16:37:06.624Z,31.02
2023-07-31T16:39:36.541Z,30.47
2023-07-31T16:42:04.723Z,30.30
2023-07-31T16:44:31.581Z,30.38
2023-07-31T16:46:58.582Z,30.31
2023-07-31T16:49:25.443Z,30.52
2023-07-31T16:51:53.005Z,30.62
2023-07-31T16:54:19.886Z,30.34
2023-07-31T16:56:59.198Z,31.06
2023-07-31T16:59:27.518Z,29.94
2023-07-31T17:01:55.888Z,30.07
2023-07-31T17:04:23.942Z,30.28
2023-07-31T17:06:51.114Z,29.98
2023-07-31T17:09:18.376Z,29.33
2023-07-31T17:11:45.293Z,29.53
2023-07-31T17:14:14.347Z,29.23
2023-07-31T17:16:43.071Z,29.67
2023-07-31T17:19:09.960Z,29.50
2023-07-31T17:21:38.066Z,29.58
2023-07-31T17:24:05.500Z,29.29
2023-07-31T17:26:32.489Z,29.53
2023-07-31T17:29:01.331Z,29.50
2023-07-31T17:31:28.735Z,29.42
2023-07-31T17:33:55.892Z,29.17
2023-07-31T17:36:22.894Z,29.37
2023-07-31T17:38:49.730Z,29.49
2023-07-31T17:41:16.662Z,30.15
2023-07-31T17:43:43.643Z,30.10
2023-07-31T17:46:10.617Z,29.99
2023-07-31T17:48:39.414Z,30.01
2023-07-31T17:51:06.360Z,29.56
2023-07-31T17:53:33.245Z,30.09
2023-07-31T17:56:00.130Z,29.95
2023-07-31T17:58:27.022Z,29.79
2023-07-31T18:00:53.925Z,30.48
2023-07-31T18:03:22.590Z,30.19
2023-07-31T18:05:49.609Z,29.66
2023-07-31T18:08:16.493Z,29.40
2023-07-31T18:10:47.010Z,29.64
2023-07-31T18:13:14.383Z,29.76
2023-07-31T18:15:50.794Z,29.81
2023-07-31T18:18:18.919Z,30.00
2023-07-31T18:20:46.517Z,30.01
2023-07-31T18:23:13.450Z,28.89
2023-07-31T18:25:43.428Z,29.28
2023-07-31T18:28:10.357Z,28.97
2023-07-31T18:30:37.401Z,28.92
2023-07-31T18:33:04.356Z,28.91
2023-07-31T18:35:31.376Z,28.89
2023-07-31T18:37:58.295Z,28.50
2023-07-31T18:40:25.208Z,28.25
2023-07-31T18:42:52.084Z,28.62
2023-07-31T18:45:19.010Z,28.14
2023-07-31T18:47:46.080Z,28.50
2023-07-31T18:50:13.039Z,28.40
2023-07-31T18:52:40.668Z,28.14
2023-07-31T18:55:07.907Z,28.31
2023-07-31T18:57:34.824Z,28.53
2023-07-31T19:00:01.756Z,28.65
2023-07-31T19:02:28.751Z,28.69
2023-07-31T19:04:55.690Z,28.92
2023-07-31T19:07:22.582Z,28.79
2023-07-31T19:09:59.857Z,28.48
2023-07-31T19:12:32.200Z,28.04
2023-07-31T19:14:59.095Z,27.94
2023-07-31T19:17:26.020Z,27.96
2023-07-31T19:19:52.921Z,28.10
2023-07-31T19:22:19.788Z,27.92
2023-07-31T19:24:46.685Z,28.15
2023-07-31T19:27:13.573Z,27.03
2023-07-31T19:29:40.445Z,27.48
2023-07-31T19:32:07.956Z,27.14
2023-07-31T19:34:34.857Z,27.25
2023-07-31T19:37:01.745Z,27.85
2023-07-31T19:39:28.668Z,26.95
2023-07-31T19:41:55.512Z,27.81
2023-07-31T19:44:22.465Z,27.71
2023-07-31T19:46:49.364Z,27.22
2023-07-31T19:49:16.242Z,27.42
2023-07-31T19:51:43.147Z,27.54
2023-07-31T19:54:10.207Z,27.90
2023-07-31T19:56:37.328Z,27.88
2023-07-31T19:59:04.379Z,27.01
2023-07-31T20:01:31.378Z,26.73
2023-07-31T20:03:58.401Z,26.59
2023-07-31T20:06:25.651Z,26.85
2023-07-31T20:08:52.821Z,27.36
2023-07-31T20:11:19.717Z,26.92
2023-07-31T20:13:46.590Z,25.99
2023-07-31T20:16:13.535Z,25.99
2023-07-31T20:18:45.024Z,26.29
2023-07-31T20:21:12.266Z,25.18
2023-07-31T20:23:43.471Z,25.03
2023-07-31T20:26:11.177Z,25.05
2023-07-31T20:28:38.237Z,25.21
2023-07-31T20:31:05.486Z,25.54
2023-07-31T20:33:32.519Z,25.33
2023-07-31T20:35:59.408Z,25.05
2023-07-31T20:38:26.289Z,25.07
2023-07-31T20:40:53.371Z,25.17
2023-07-31T20:43:20.728Z,24.65
2023-07-31T20:45:47.758Z,24.38
2023-07-31T20:48:15.950Z,24.55
2023-07-31T20:50:43.179Z,24.52
2023-07-31T20:53:10.226Z,24.66
2023-07-31T20:55:39.657Z,24.58
2023-07-31T20:58:07.276Z,24.93
2023-07-31T21:00:34.161Z,24.90
2023-07-31T21:03:01.554Z,24.60
2023-07-31T21:05:28.525Z,24.52
2023-07-31T21:07:55.417Z,24.69
2023-07-31T21:10:22.294Z,25.13
2023-07-31T21:12:49.198Z,25.41
2023-07-31T21:15:16.064Z,25.36
2023-07-31T21:17:43.051Z,25.43
2023-07-31T21:20:10.249Z,25.30
2023-07-31T21:22:37.126Z,24.68
2023-07-31T21:25:04.195Z,23.93
2023-07-31T21:27:31.179Z,24.43
2023-07-31T21:29:59.211Z,24.30
2023-07-31T21:32:26.629Z,24.61
2023-07-31T21:34:53.502Z,24.11
2023-07-31T21:37:20.377Z,24.54
2023-07-31T21:39:47.250Z,24.89
2023-07-31T21:42:14.140Z,24.44
2023-07-31T21:44:41.547Z,24.66
2023-07-31T21:47:08.441Z,24.56
2023-07-31T21:49:35.358Z,24.30
2023-07-31T21:52:02.226Z,24.81
2023-07-31T21:54:29.104Z,24.31
2023-07-31T21:56:55.996Z,24.96
2023-07-31T21:59:22.903Z,24.59
2023-07-31T22:01:49.789Z,24.67
2023-07-31T22:04:17.706Z,24.46
2023-07-31T22:06:45.514Z,24.60
2023-07-31T22:09:12.381Z,24.01
2023-07-31T22:11:39.251Z,24.95
2023-07-31T22:14:06.124Z,24.59
2023-07-31T22:16:34.623Z,24.71
2023-07-31T22:19:01.554Z,24.79
2023-07-31T22:21:28.465Z,24.79
2023-07-31T22:23:55.382Z,24.51
2023-07-31T22:26:22.452Z,24.14
2023-07-31T22:28:49.381Z,24.49
2023-07-31T22:31:16.367Z,23.71
2023-07-31T22:33:43.288Z,24.39
2023-07-31T22:36:10.152Z,23.89
2023-07-31T22:38:37.263Z,23.81
2023-07-31T22:41:06.130Z,24.30
2023-07-31T22:43:35.118Z,23.55
2023-07-31T22:46:02.058Z,23.63
2023-07-31T22:48:28.940Z,23.81
2023-07-31T22:50:55.788Z,23.73
2023-07-31T22:53:22.681Z,23.55
2023-07-31T22:55:49.584Z,23.59
2023-07-31T22:58:16.505Z,23.88
2023-07-31T23:00:43.376Z,23.87
2023-07-31T23:03:10.309Z,23.14
2023-07-31T23:05:38.131Z,22.81
2023-07-31T23:08:05.233Z,23.49
2023-07-31T23:10:32.098Z,23.04
2023-07-31T23:12:59.039Z,23.36
2023-07-31T23:15:25.958Z,23.36
2023-07-31T23:17:52.828Z,23.40
2023-07-31T23:20:19.704Z,23.36
2023-07-31T23:22:46.578Z,23.50
2023-07-31T23:25:13.556Z,23.48
2023-07-31T23:27:41.642Z,23.19
2023-07-31T23:30:09.010Z,22.94
2023-07-31T23:32:35.999Z,22.90
2023-07-31T23:35:02.930Z,23.12
2023-07-31T23:37:29.894Z,23.59
2023-07-31T23:39:56.762Z,23.98
2023-07-31T23:42:25.612Z,23.80
2023-07-31T23:45:05.096Z,23.83
2023-07-31T23:47:36.806Z,23.01
2023-07-31T23:50:03.958Z,23.29
2023-07-31T23:52:30.844Z,23.64
2023-07-31T23:54:57.754Z,23.76
2023-07-31T23:57:24.688Z,24.17
2023-07-31T23:59:51.579Z,24.24
